Thursday, November 23, 2017, 9:29 AM GMT
Back to Local

CWJB, Ste Foy CS , Que.

Location: , , Canada Lat: 47.3
Local Time: 9:29 AM GMT ( 9:29 GMT) Lon: -71.267
Time Zone: GMT Elev: 298 ft

Show me the last for .
Show Coded

Time T Td Feel RH Dir Speed Gust Alt SLP Vis Weather Sky Remarks
2017-11-23 09:00 20 13 13 74 210° 5 - - - 0 None
2017-11-23 08:00 21 13 - 70 360° 2 - - - 0 None
2017-11-23 07:00 22 15 14 73 330° 6 - - - 0 None
2017-11-23 06:00 23 14 17 67 330° 5 - - - 0 None
2017-11-23 05:00 24 15 16 70 330° 6 - - - 0 None
2017-11-23 04:00 24 16 15 71 320° 9 - - - 0 None
2017-11-23 03:00 26 18 19 71 320° 7 - - - 0 None
2017-11-23 02:00 29 21 22 71 320° 7 - - - 0 None
2017-11-23 01:00 32 24 24 73 320° 9 - - - 0 None
2017-11-23 00:00 33 28 - 80 250° 2 - - - 0 None
2017-11-22 23:00 35 29 32 81 200° 3 - - - 0 None
2017-11-22 22:00 35 34 32 95 210° 3 - - - 0 None
2017-11-22 21:00 36 35 31 98 220° 6 - - - 0 None
2017-11-22 20:00 36 36 31 99 220° 6 - - - 0 None
2017-11-22 19:00 35 35 30 98 220° 6 - - - 0 None
2017-11-22 18:00 36 35 30 97 220° 7 - - - 0 None
2017-11-22 17:00 36 36 32 98 220° 5 - - - 0 None
2017-11-22 16:00 37 36 - 99 200° 2 - - - 0 None
2017-11-22 15:00 36 36 - 99 340° 1 - - - 0 None
2017-11-22 14:00 35 35 - 100 - Calm - - - 0 1-hr Precip Total: 0.05"
2017-11-22 13:00 33 33 - 100 - Calm - - - 0 None
2017-11-22 12:00 33 33 - 99 - Calm - - - 0 None
2017-11-22 11:00 31 32 - 102 - Calm - - - 0 1-hr Precip Total: 0.05"
2017-11-22 10:00 33 32 - 95 200° 1 - - - 0 None

Support USWX by starting your Amazon purchase here.